Islamabad, Pakistan
Current Conditions -  °F | °C
As of 10:00 AM on Sunday 23 Nov 2014 (Local Time) from OPRN Reporting Station
Haze Haze  
Wind Chill: 59°   Ceiling: Unl
Heat Index: 59°   Visibility: 2.5mi
Dew Point: 41°   Wind: 0mph
Humidity: 51%   Direction: NA
Pressure: NA   Gusts: NA
Location:  33.72°N, 73.06°E
Report Text: OPRN 230500Z 00000KT 4000 HZ SKC 15/05 Q1020.4/30.13
Loading
Personal Weather Stations






























Interactive Weather Map New forecast layout! Learn more

10-Day Weather Forecast

Advertisements
Track Severe Weather on mobile